Douglasville, GA (30135)

9:29 AM EDT on May 06, 2015 (GMT -0400)
Chapel Hill - N4LEC | | Change Station
CLOSE
Current Station
Personal Weather Station
Location: Douglasville, GA
Elevation: 1004 ft
Nearby Weather Stations

Elev 1004 ft 33.69 °N, 84.71 °W | Updated 43 seconds ago

Clear
Clear
63.5 °F
Feels Like 63.5 °F
N
0.0
Wind Variable Wind from NW
Gusts 0.0 mph

Today
High -- | Low -- °F
--% Chance of Precip.
Yesterday
High -- | Low -- °F
Precip. -- in
6:45 AM 8:25 PM
Waning Gibbous, 94% visible
Pressure 30.22 in
Visibility 10.0 miles
Clouds Clear
Dew Point 63 °F
Humidity 99%
Rainfall 0.00 in
Snow Depth Not available.
UV 2 out of 12
Pollen 7.90 out of 12
Air Quality Not available.
Flu Activity Sporadic
METAR KFTY 061253Z 02003KT 10SM CLR 18/13 A3024 RMK AO2 SLP232 T01780133

More Conditions Fewer Conditions

Pressure 30.22 in
Visibility 10.0 miles
Clouds Clear
Dew Point 63 °F
Humidity 99%
Rainfall 0.00 in
Snow Depth Not available.
UV 2 out of 12
Pollen 7.90 out of 12
Air Quality Not available.
Flu Activity Sporadic
METAR KFTY 061253Z 02003KT 10SM CLR 18/13 A3024 RMK AO2 SLP232 T01780133

More Conditions Fewer Conditions

10-Day Weather Forecast

Almanac

Astronomy

May. 06, 2015 Rise Set
Actual Time
Civil Twilight
Nautical Twilight
Astronomical Twilight
Moon
Length of Visible Light
Length of Day
Tomorrow will be .
, % of the Moon is Illuminated

Today's Extremes

State Highs State Lows

Community

WunderPhotos

Upload Photos

1,818,894 photos uploaded!

WunderBlogs® & News

Nearby

Air Quality

  Air Quality AQ Index Pollutant
Not available.

Snow Depth

Station Depth Elevation

Earthquake Activity

City Distance Mag. Time & Date
Minimum magnitude displayed is 2.5.

Coastal Water Temperatures

Place Temperature

Stations

Nearby Weather Stations

Station Location Temp. Windchill Dew Point Humidity Wind Precip. Elev Updated Type